GOOY/DKR METAR and TAF weather

Enter ICAO airport designator
Station Type Date Time Source
GOOY METAR 2020/06/05 11:00 UTC NOAA

GOOY 051100Z 32010KT CAVOK 26/21 Q1014


Station Type Date Time Source
GOOY Decoded METAR 2020/06/05 11:00 UTC NOAA

Dakar / Yoff, Senegal (GOOY) 14-44N 017-30W 24M
Jun 05, 2020 - 07:00 AM EDT / 2020.06.05 1100 UTC
Wind: from the NW (320 degrees) at 12 MPH (10 KT):0
Visibility: greater than 7 mile(s):0
Temperature: 78 F (26 C)
Dew Point: 69 F (21 C)
Relative Humidity: 73%
Pressure (altimeter): 29.94 in. Hg (1014 hPa)
ob: GOOY 051100Z 32010KT CAVOK 26/21 Q1014
cycle: 11

Station Type Date Time Source
GOOY TAF 2020/06/05 12:21 UTC NOAA

TAF GOOY 051130Z 0512/0618 33012KT CAVOK

Example: see airport list